sensor_id;sensor_type;location;lat;lon;timestamp;temperature;humidity
64198;SHT31;50512;53.666;9.700;2023-11-21T00:00:22;8.23;99.99
64198;SHT31;50512;53.666;9.700;2023-11-21T00:02:49;8.22;99.99
64198;SHT31;50512;53.666;9.700;2023-11-21T00:05:17;8.22;99.99
64198;SHT31;50512;53.666;9.700;2023-11-21T00:07:43;8.23;99.99
64198;SHT31;50512;53.666;9.700;2023-11-21T00:10:11;8.16;99.99
64198;SHT31;50512;53.666;9.700;2023-11-21T00:12:39;8.17;99.99
64198;SHT31;50512;53.666;9.700;2023-11-21T00:15:07;8.16;99.99
64198;SHT31;50512;53.666;9.700;2023-11-21T00:17:36;8.21;99.99
64198;SHT31;50512;53.666;9.700;2023-11-21T00:20:03;8.19;99.99
64198;SHT31;50512;53.666;9.700;2023-11-21T00:22:33;8.17;99.99
64198;SHT31;50512;53.666;9.700;2023-11-21T00:24:59;8.23;99.99
64198;SHT31;50512;53.666;9.700;2023-11-21T00:27:26;8.16;99.99
64198;SHT31;50512;53.666;9.700;2023-11-21T00:29:52;8.21;99.99
64198;SHT31;50512;53.666;9.700;2023-11-21T00:32:19;8.09;99.99
64198;SHT31;50512;53.666;9.700;2023-11-21T00:34:45;8.03;99.99
64198;SHT31;50512;53.666;9.700;2023-11-21T00:37:12;7.99;99.99
64198;SHT31;50512;53.666;9.700;2023-11-21T00:39:39;7.98;99.99
64198;SHT31;50512;53.666;9.700;2023-11-21T00:42:06;7.89;99.99
64198;SHT31;50512;53.666;9.700;2023-11-21T00:44:33;7.87;99.99
64198;SHT31;50512;53.666;9.700;2023-11-21T00:47:00;7.87;99.99
64198;SHT31;50512;53.666;9.700;2023-11-21T00:49:28;8.22;99.99
64198;SHT31;50512;53.666;9.700;2023-11-21T00:51:54;8.25;99.99
64198;SHT31;50512;53.666;9.700;2023-11-21T00:54:21;8.42;99.99
64198;SHT31;50512;53.666;9.700;2023-11-21T00:56:49;8.12;99.99
64198;SHT31;50512;53.666;9.700;2023-11-21T00:59:16;7.96;99.99
64198;SHT31;50512;53.666;9.700;2023-11-21T01:01:42;7.88;99.99
64198;SHT31;50512;53.666;9.700;2023-11-21T01:04:09;7.81;99.99
64198;SHT31;50512;53.666;9.700;2023-11-21T01:06:36;7.82;99.99
64198;SHT31;50512;53.666;9.700;2023-11-21T01:09:02;7.75;99.99
64198;SHT31;50512;53.666;9.700;2023-11-21T01:11:33;7.53;99.99
64198;SHT31;50512;53.666;9.700;2023-11-21T01:14:02;7.49;99.99
64198;SHT31;50512;53.666;9.700;2023-11-21T01:16:29;7.47;99.99
64198;SHT31;50512;53.666;9.700;2023-11-21T01:18:57;7.44;99.99
64198;SHT31;50512;53.666;9.700;2023-11-21T01:21:24;7.50;99.99
64198;SHT31;50512;53.666;9.700;2023-11-21T01:23:50;7.43;99.99
64198;SHT31;50512;53.666;9.700;2023-11-21T01:26:17;7.42;99.99
64198;SHT31;50512;53.666;9.700;2023-11-21T01:28:43;7.40;99.99
64198;SHT31;50512;53.666;9.700;2023-11-21T01:31:11;7.42;99.99
64198;SHT31;50512;53.666;9.700;2023-11-21T01:33:38;7.46;99.99
64198;SHT31;50512;53.666;9.700;2023-11-21T01:36:05;7.37;99.99
64198;SHT31;50512;53.666;9.700;2023-11-21T01:38:31;7.34;99.99
64198;SHT31;50512;53.666;9.700;2023-11-21T01:40:58;7.33;99.99
64198;SHT31;50512;53.666;9.700;2023-11-21T01:43:25;7.30;99.99
64198;SHT31;50512;53.666;9.700;2023-11-21T01:45:53;7.33;99.99
64198;SHT31;50512;53.666;9.700;2023-11-21T01:48:23;7.24;99.99
64198;SHT31;50512;53.666;9.700;2023-11-21T01:50:50;7.29;99.99
64198;SHT31;50512;53.666;9.700;2023-11-21T01:53:17;7.30;99.99
64198;SHT31;50512;53.666;9.700;2023-11-21T01:55:45;7.34;99.99
64198;SHT31;50512;53.666;9.700;2023-11-21T01:58:11;7.39;99.99
64198;SHT31;50512;53.666;9.700;2023-11-21T02:00:39;7.37;99.99
64198;SHT31;50512;53.666;9.700;2023-11-21T02:03:05;7.26;99.99
64198;SHT31;50512;53.666;9.700;2023-11-21T02:05:33;7.27;99.99
64198;SHT31;50512;53.666;9.700;2023-11-21T02:08:00;7.20;99.99
64198;SHT31;50512;53.666;9.700;2023-11-21T02:10:27;7.23;99.99
64198;SHT31;50512;53.666;9.700;2023-11-21T02:12:56;7.16;99.99
64198;SHT31;50512;53.666;9.700;2023-11-21T02:15:23;7.16;99.99
64198;SHT31;50512;53.666;9.700;2023-11-21T02:17:54;7.18;99.99
64198;SHT31;50512;53.666;9.700;2023-11-21T02:20:21;7.16;99.99
64198;SHT31;50512;53.666;9.700;2023-11-21T02:22:51;7.16;99.99
64198;SHT31;50512;53.666;9.700;2023-11-21T02:25:21;7.23;99.99
64198;SHT31;50512;53.666;9.700;2023-11-21T02:27:48;7.23;99.99
64198;SHT31;50512;53.666;9.700;2023-11-21T02:30:14;7.22;99.99
64198;SHT31;50512;53.666;9.700;2023-11-21T02:32:41;7.20;99.99
64198;SHT31;50512;53.666;9.700;2023-11-21T02:35:08;7.15;99.99
64198;SHT31;50512;53.666;9.700;2023-11-21T02:37:34;7.02;99.99
64198;SHT31;50512;53.666;9.700;2023-11-21T02:40:03;7.03;99.99
64198;SHT31;50512;53.666;9.700;2023-11-21T02:42:31;7.08;99.99
64198;SHT31;50512;53.666;9.700;2023-11-21T02:44:58;7.06;99.99
64198;SHT31;50512;53.666;9.700;2023-11-21T02:47:24;7.11;99.99
64198;SHT31;50512;53.666;9.700;2023-11-21T02:49:50;6.99;99.99
64198;SHT31;50512;53.666;9.700;2023-11-21T02:52:17;6.99;99.99
64198;SHT31;50512;53.666;9.700;2023-11-21T02:54:44;6.80;99.99
64198;SHT31;50512;53.666;9.700;2023-11-21T02:57:12;6.81;99.99
64198;SHT31;50512;53.666;9.700;2023-11-21T02:59:38;6.71;99.99
64198;SHT31;50512;53.666;9.700;2023-11-21T03:02:05;6.75;99.99
64198;SHT31;50512;53.666;9.700;2023-11-21T03:04:33;6.78;99.99
64198;SHT31;50512;53.666;9.700;2023-11-21T03:07:00;6.74;99.99
64198;SHT31;50512;53.666;9.700;2023-11-21T03:09:26;6.70;99.99
64198;SHT31;50512;53.666;9.700;2023-11-21T03:11:53;6.75;99.99
64198;SHT31;50512;53.666;9.700;2023-11-21T03:14:21;6.78;99.99
64198;SHT31;50512;53.666;9.700;2023-11-21T03:16:47;6.66;99.99
64198;SHT31;50512;53.666;9.700;2023-11-21T03:19:14;6.73;99.99
64198;SHT31;50512;53.666;9.700;2023-11-21T03:21:41;6.71;99.99
64198;SHT31;50512;53.666;9.700;2023-11-21T03:24:08;6.77;99.99
64198;SHT31;50512;53.666;9.700;2023-11-21T03:26:34;6.77;99.99
64198;SHT31;50512;53.666;9.700;2023-11-21T03:29:02;6.78;99.99
64198;SHT31;50512;53.666;9.700;2023-11-21T03:31:31;6.81;99.99
64198;SHT31;50512;53.666;9.700;2023-11-21T03:33:57;6.87;99.99
64198;SHT31;50512;53.666;9.700;2023-11-21T03:36:24;6.84;99.99
64198;SHT31;50512;53.666;9.700;2023-11-21T03:38:51;6.87;99.99
64198;SHT31;50512;53.666;9.700;2023-11-21T03:41:17;6.84;99.99
64198;SHT31;50512;53.666;9.700;2023-11-21T03:43:43;6.89;99.99
64198;SHT31;50512;53.666;9.700;2023-11-21T03:46:10;6.88;99.99
64198;SHT31;50512;53.666;9.700;2023-11-21T03:48:38;6.77;99.99
64198;SHT31;50512;53.666;9.700;2023-11-21T03:51:05;6.74;99.99
64198;SHT31;50512;53.666;9.700;2023-11-21T03:53:32;6.74;99.99
64198;SHT31;50512;53.666;9.700;2023-11-21T03:55:58;6.74;99.97
64198;SHT31;50512;53.666;9.700;2023-11-21T03:58:26;6.78;99.99
64198;SHT31;50512;53.666;9.700;2023-11-21T04:00:53;6.80;99.99
64198;SHT31;50512;53.666;9.700;2023-11-21T04:03:19;6.74;99.99
64198;SHT31;50512;53.666;9.700;2023-11-21T04:05:47;6.78;99.99
64198;SHT31;50512;53.666;9.700;2023-11-21T04:08:13;6.78;99.99
64198;SHT31;50512;53.666;9.700;2023-11-21T04:10:40;6.81;99.99
64198;SHT31;50512;53.666;9.700;2023-11-21T04:13:07;6.81;99.99
64198;SHT31;50512;53.666;9.700;2023-11-21T04:15:33;6.83;99.99
64198;SHT31;50512;53.666;9.700;2023-11-21T04:18:00;6.75;99.31
64198;SHT31;50512;53.666;9.700;2023-11-21T04:20:27;6.78;99.75
64198;SHT31;50512;53.666;9.700;2023-11-21T04:22:54;6.81;99.75
64198;SHT31;50512;53.666;9.700;2023-11-21T04:25:21;6.74;99.99
64198;SHT31;50512;53.666;9.700;2023-11-21T04:27:48;6.80;99.99
64198;SHT31;50512;53.666;9.700;2023-11-21T04:30:15;6.81;99.77
64198;SHT31;50512;53.666;9.700;2023-11-21T04:32:42;6.83;99.81
64198;SHT31;50512;53.666;9.700;2023-11-21T04:35:08;6.75;99.41
64198;SHT31;50512;53.666;9.700;2023-11-21T04:37:35;6.83;99.99
64198;SHT31;50512;53.666;9.700;2023-11-21T04:40:04;6.78;99.46
64198;SHT31;50512;53.666;9.700;2023-11-21T04:42:33;6.71;99.99
64198;SHT31;50512;53.666;9.700;2023-11-21T04:45:00;6.73;99.99
64198;SHT31;50512;53.666;9.700;2023-11-21T04:47:26;6.74;99.99
64198;SHT31;50512;53.666;9.700;2023-11-21T04:49:53;6.81;99.99
64198;SHT31;50512;53.666;9.700;2023-11-21T04:52:20;6.83;99.94
64198;SHT31;50512;53.666;9.700;2023-11-21T04:54:47;6.73;99.03
64198;SHT31;50512;53.666;9.700;2023-11-21T04:57:14;6.73;99.02
64198;SHT31;50512;53.666;9.700;2023-11-21T04:59:43;6.83;99.03
64198;SHT31;50512;53.666;9.700;2023-11-21T05:02:10;6.85;99.00
64198;SHT31;50512;53.666;9.700;2023-11-21T05:04:36;6.88;98.63
64198;SHT31;50512;53.666;9.700;2023-11-21T05:07:03;6.85;98.39
64198;SHT31;50512;53.666;9.700;2023-11-21T05:09:29;6.83;98.39
64198;SHT31;50512;53.666;9.700;2023-11-21T05:11:57;6.84;98.49
64198;SHT31;50512;53.666;9.700;2023-11-21T05:14:25;6.88;98.38
64198;SHT31;50512;53.666;9.700;2023-11-21T05:16:51;6.88;98.61
64198;SHT31;50512;53.666;9.700;2023-11-21T05:19:18;6.85;98.60
64198;SHT31;50512;53.666;9.700;2023-11-21T05:21:44;6.84;98.50
64198;SHT31;50512;53.666;9.700;2023-11-21T05:24:11;6.81;97.98
64198;SHT31;50512;53.666;9.700;2023-11-21T05:26:38;6.81;98.19
64198;SHT31;50512;53.666;9.700;2023-11-21T05:29:04;6.78;98.32
64198;SHT31;50512;53.666;9.700;2023-11-21T05:31:32;6.80;98.11
64198;SHT31;50512;53.666;9.700;2023-11-21T05:33:58;6.81;98.82
64198;SHT31;50512;53.666;9.700;2023-11-21T05:36:25;6.91;98.71
64198;SHT31;50512;53.666;9.700;2023-11-21T05:38:51;6.95;98.47
64198;SHT31;50512;53.666;9.700;2023-11-21T05:41:18;6.89;97.67
64198;SHT31;50512;53.666;9.700;2023-11-21T05:43:44;6.91;97.83
64198;SHT31;50512;53.666;9.700;2023-11-21T05:46:10;6.85;98.06
64198;SHT31;50512;53.666;9.700;2023-11-21T05:48:39;6.83;97.69
64198;SHT31;50512;53.666;9.700;2023-11-21T05:51:07;6.87;98.09
64198;SHT31;50512;53.666;9.700;2023-11-21T05:53:34;6.87;97.82
64198;SHT31;50512;53.666;9.700;2023-11-21T05:56:01;6.85;97.89
64198;SHT31;50512;53.666;9.700;2023-11-21T05:58:29;6.87;97.76
64198;SHT31;50512;53.666;9.700;2023-11-21T06:00:55;6.84;97.60
64198;SHT31;50512;53.666;9.700;2023-11-21T06:03:22;6.78;97.46
64198;SHT31;50512;53.666;9.700;2023-11-21T06:05:50;6.78;97.20
64198;SHT31;50512;53.666;9.700;2023-11-21T06:08:17;6.83;97.61
64198;SHT31;50512;53.666;9.700;2023-11-21T06:10:44;6.83;97.40
64198;SHT31;50512;53.666;9.700;2023-11-21T06:13:14;6.81;97.79
64198;SHT31;50512;53.666;9.700;2023-11-21T06:15:41;6.85;97.94
64198;SHT31;50512;53.666;9.700;2023-11-21T06:18:07;6.88;97.88
64198;SHT31;50512;53.666;9.700;2023-11-21T06:20:35;6.88;96.54
64198;SHT31;50512;53.666;9.700;2023-11-21T06:23:04;6.89;97.70
64198;SHT31;50512;53.666;9.700;2023-11-21T06:25:30;6.98;97.96
64198;SHT31;50512;53.666;9.700;2023-11-21T06:27:58;6.96;97.85
64198;SHT31;50512;53.666;9.700;2023-11-21T06:30:24;7.03;97.97
64198;SHT31;50512;53.666;9.700;2023-11-21T06:32:51;7.01;97.01
64198;SHT31;50512;53.666;9.700;2023-11-21T06:35:17;6.98;96.44
64198;SHT31;50512;53.666;9.700;2023-11-21T06:37:44;6.92;97.12
64198;SHT31;50512;53.666;9.700;2023-11-21T06:40:14;6.91;96.60
64198;SHT31;50512;53.666;9.700;2023-11-21T06:42:41;6.98;97.35
64198;SHT31;50512;53.666;9.700;2023-11-21T06:45:09;6.91;97.17
64198;SHT31;50512;53.666;9.700;2023-11-21T06:47:36;6.87;97.01
64198;SHT31;50512;53.666;9.700;2023-11-21T06:50:03;6.84;97.46
64198;SHT31;50512;53.666;9.700;2023-11-21T06:52:30;6.80;97.81
64198;SHT31;50512;53.666;9.700;2023-11-21T06:54:56;6.78;98.26
64198;SHT31;50512;53.666;9.700;2023-11-21T06:57:24;6.78;98.60
64198;SHT31;50512;53.666;9.700;2023-11-21T06:59:51;6.78;98.60
64198;SHT31;50512;53.666;9.700;2023-11-21T07:02:17;6.80;98.86
64198;SHT31;50512;53.666;9.700;2023-11-21T07:04:44;6.78;98.96
64198;SHT31;50512;53.666;9.700;2023-11-21T07:07:11;6.84;99.08
64198;SHT31;50512;53.666;9.700;2023-11-21T07:09:38;6.80;99.38
64198;SHT31;50512;53.666;9.700;2023-11-21T07:12:05;6.83;99.78
64198;SHT31;50512;53.666;9.700;2023-11-21T07:14:34;6.81;99.85
64198;SHT31;50512;53.666;9.700;2023-11-21T07:17:00;6.84;99.89
64198;SHT31;50512;53.666;9.700;2023-11-21T07:19:27;6.87;99.99
64198;SHT31;50512;53.666;9.700;2023-11-21T07:21:54;6.88;99.99
64198;SHT31;50512;53.666;9.700;2023-11-21T07:24:21;6.92;99.99
64198;SHT31;50512;53.666;9.700;2023-11-21T07:26:48;6.98;99.99
64198;SHT31;50512;53.666;9.700;2023-11-21T07:29:14;6.85;99.92
64198;SHT31;50512;53.666;9.700;2023-11-21T07:31:42;6.87;99.99
64198;SHT31;50512;53.666;9.700;2023-11-21T07:34:08;6.87;99.99
64198;SHT31;50512;53.666;9.700;2023-11-21T07:36:37;6.84;99.99
64198;SHT31;50512;53.666;9.700;2023-11-21T07:39:03;6.78;99.99
64198;SHT31;50512;53.666;9.700;2023-11-21T07:41:31;6.77;99.99
64198;SHT31;50512;53.666;9.700;2023-11-21T07:43:58;6.81;99.99
64198;SHT31;50512;53.666;9.700;2023-11-21T07:46:25;6.84;99.99
64198;SHT31;50512;53.666;9.700;2023-11-21T07:48:53;6.87;99.99
64198;SHT31;50512;53.666;9.700;2023-11-21T07:51:20;6.84;99.99
64198;SHT31;50512;53.666;9.700;2023-11-21T07:53:47;6.87;99.99
64198;SHT31;50512;53.666;9.700;2023-11-21T07:56:13;6.88;99.73
64198;SHT31;50512;53.666;9.700;2023-11-21T07:58:40;6.81;99.36
64198;SHT31;50512;53.666;9.700;2023-11-21T08:01:06;6.84;99.81
64198;SHT31;50512;53.666;9.700;2023-11-21T08:03:33;6.85;99.82
64198;SHT31;50512;53.666;9.700;2023-11-21T08:06:01;6.88;99.89
64198;SHT31;50512;53.666;9.700;2023-11-21T08:08:28;6.87;99.66
64198;SHT31;50512;53.666;9.700;2023-11-21T08:10:55;6.85;99.61
64198;SHT31;50512;53.666;9.700;2023-11-21T08:13:22;6.85;99.99
64198;SHT31;50512;53.666;9.700;2023-11-21T08:15:49;6.85;99.49
64198;SHT31;50512;53.666;9.700;2023-11-21T08:18:15;6.80;99.42
64198;SHT31;50512;53.666;9.700;2023-11-21T08:20:43;6.83;99.89
64198;SHT31;50512;53.666;9.700;2023-11-21T08:23:14;6.84;99.86
64198;SHT31;50512;53.666;9.700;2023-11-21T08:25:42;6.87;99.89
64198;SHT31;50512;53.666;9.700;2023-11-21T08:28:08;6.81;99.56
64198;SHT31;50512;53.666;9.700;2023-11-21T08:30:35;6.78;99.99
64198;SHT31;50512;53.666;9.700;2023-11-21T08:33:01;6.77;99.99
64198;SHT31;50512;53.666;9.700;2023-11-21T08:35:28;6.73;99.99
64198;SHT31;50512;53.666;9.700;2023-11-21T08:37:55;6.75;99.99
64198;SHT31;50512;53.666;9.700;2023-11-21T08:40:23;6.75;99.99
64198;SHT31;50512;53.666;9.700;2023-11-21T08:42:50;6.77;99.99
64198;SHT31;50512;53.666;9.700;2023-11-21T08:45:18;6.83;99.99
64198;SHT31;50512;53.666;9.700;2023-11-21T08:47:44;6.83;99.99
64198;SHT31;50512;53.666;9.700;2023-11-21T08:50:12;6.81;99.99
64198;SHT31;50512;53.666;9.700;2023-11-21T08:52:39;6.81;99.99
64198;SHT31;50512;53.666;9.700;2023-11-21T08:55:06;6.84;99.99
64198;SHT31;50512;53.666;9.700;2023-11-21T08:57:35;6.88;99.99
64198;SHT31;50512;53.666;9.700;2023-11-21T09:00:02;6.94;99.99
64198;SHT31;50512;53.666;9.700;2023-11-21T09:02:30;7.01;99.99
64198;SHT31;50512;53.666;9.700;2023-11-21T09:04:57;6.98;99.99
64198;SHT31;50512;53.666;9.700;2023-11-21T09:07:24;7.02;99.99
64198;SHT31;50512;53.666;9.700;2023-11-21T09:09:51;7.11;99.99
64198;SHT31;50512;53.666;9.700;2023-11-21T09:12:17;7.08;99.60
64198;SHT31;50512;53.666;9.700;2023-11-21T09:14:45;7.11;99.75
64198;SHT31;50512;53.666;9.700;2023-11-21T09:17:12;7.08;98.88
64198;SHT31;50512;53.666;9.700;2023-11-21T09:19:39;7.15;99.35
64198;SHT31;50512;53.666;9.700;2023-11-21T09:22:06;7.19;99.53
64198;SHT31;50512;53.666;9.700;2023-11-21T09:24:33;7.20;99.40
64198;SHT31;50512;53.666;9.700;2023-11-21T09:27:00;7.18;99.03
64198;SHT31;50512;53.666;9.700;2023-11-21T09:29:26;7.24;99.54
64198;SHT31;50512;53.666;9.700;2023-11-21T09:31:55;7.32;99.01
64198;SHT31;50512;53.666;9.700;2023-11-21T09:34:24;7.30;98.27
64198;SHT31;50512;53.666;9.700;2023-11-21T09:36:51;7.30;98.25
64198;SHT31;50512;53.666;9.700;2023-11-21T09:39:18;7.32;97.99
64198;SHT31;50512;53.666;9.700;2023-11-21T09:41:49;7.36;97.74
64198;SHT31;50512;53.666;9.700;2023-11-21T09:44:18;7.44;98.19
64198;SHT31;50512;53.666;9.700;2023-11-21T09:46:47;7.44;96.49
64198;SHT31;50512;53.666;9.700;2023-11-21T09:49:18;7.51;97.07
64198;SHT31;50512;53.666;9.700;2023-11-21T09:51:46;7.49;96.24
64198;SHT31;50512;53.666;9.700;2023-11-21T09:54:15;7.53;95.86
64198;SHT31;50512;53.666;9.700;2023-11-21T09:56:43;7.53;96.19
64198;SHT31;50512;53.666;9.700;2023-11-21T09:59:13;7.50;95.85
64198;SHT31;50512;53.666;9.700;2023-11-21T10:01:41;7.49;95.45
64198;SHT31;50512;53.666;9.700;2023-11-21T10:04:08;7.47;94.93
64198;SHT31;50512;53.666;9.700;2023-11-21T10:06:38;7.44;94.84
64198;SHT31;50512;53.666;9.700;2023-11-21T10:09:07;7.49;95.30
64198;SHT31;50512;53.666;9.700;2023-11-21T10:11:39;7.57;95.18
64198;SHT31;50512;53.666;9.700;2023-11-21T10:14:08;7.56;94.44
64198;SHT31;50512;53.666;9.700;2023-11-21T10:16:35;7.53;94.30
64198;SHT31;50512;53.666;9.700;2023-11-21T10:19:03;7.51;94.13
64198;SHT31;50512;53.666;9.700;2023-11-21T10:21:32;7.46;94.66
64198;SHT31;50512;53.666;9.700;2023-11-21T10:24:00;7.49;94.70
64198;SHT31;50512;53.666;9.700;2023-11-21T10:26:27;7.40;95.39
64198;SHT31;50512;53.666;9.700;2023-11-21T10:28:57;7.40;95.39
64198;SHT31;50512;53.666;9.700;2023-11-21T10:31:23;7.47;96.65
64198;SHT31;50512;53.666;9.700;2023-11-21T10:33:50;7.51;95.29
64198;SHT31;50512;53.666;9.700;2023-11-21T10:36:25;7.44;96.09
64198;SHT31;50512;53.666;9.700;2023-11-21T10:38:52;7.32;95.50
64198;SHT31;50512;53.666;9.700;2023-11-21T10:41:21;7.29;95.30
64198;SHT31;50512;53.666;9.700;2023-11-21T10:43:47;7.29;95.54
64198;SHT31;50512;53.666;9.700;2023-11-21T10:46:14;7.20;94.96
64198;SHT31;50512;53.666;9.700;2023-11-21T10:48:41;7.19;94.82
64198;SHT31;50512;53.666;9.700;2023-11-21T10:51:08;7.20;94.86
64198;SHT31;50512;53.666;9.700;2023-11-21T10:53:38;7.27;95.48
64198;SHT31;50512;53.666;9.700;2023-11-21T10:56:06;7.34;96.72
64198;SHT31;50512;53.666;9.700;2023-11-21T10:58:37;7.39;95.53
64198;SHT31;50512;53.666;9.700;2023-11-21T11:01:06;7.18;94.66
64198;SHT31;50512;53.666;9.700;2023-11-21T11:03:35;7.27;95.78
64198;SHT31;50512;53.666;9.700;2023-11-21T11:06:03;7.39;96.81
64198;SHT31;50512;53.666;9.700;2023-11-21T11:08:34;7.08;95.09
64198;SHT31;50512;53.666;9.700;2023-11-21T11:11:01;7.03;95.85
64198;SHT31;50512;53.666;9.700;2023-11-21T11:13:27;7.02;96.63
64198;SHT31;50512;53.666;9.700;2023-11-21T11:15:59;6.77;95.94
64198;SHT31;50512;53.666;9.700;2023-11-21T11:18:27;6.67;96.57
64198;SHT31;50512;53.666;9.700;2023-11-21T11:20:54;6.77;97.32
64198;SHT31;50512;53.666;9.700;2023-11-21T11:23:36;6.70;97.67
64198;SHT31;50512;53.666;9.700;2023-11-21T11:26:19;6.54;97.57
64198;SHT31;50512;53.666;9.700;2023-11-21T11:28:55;6.63;98.77
64198;SHT31;50512;53.666;9.700;2023-11-21T11:31:27;6.70;98.80
64198;SHT31;50512;53.666;9.700;2023-11-21T11:33:59;6.53;98.16
64198;SHT31;50512;53.666;9.700;2023-11-21T11:36:34;6.54;97.45
64198;SHT31;50512;53.666;9.700;2023-11-21T11:39:02;6.57;97.93
64198;SHT31;50512;53.666;9.700;2023-11-21T11:41:31;6.39;97.79
64198;SHT31;50512;53.666;9.700;2023-11-21T11:44:00;6.47;98.08
64198;SHT31;50512;53.666;9.700;2023-11-21T11:46:43;6.58;98.11
64198;SHT31;50512;53.666;9.700;2023-11-21T11:49:23;6.57;96.44
64198;SHT31;50512;53.666;9.700;2023-11-21T11:54:50;6.64;96.33
64198;SHT31;50512;53.666;9.700;2023-11-21T11:57:17;6.64;95.58
64198;SHT31;50512;53.666;9.700;2023-11-21T12:00:11;6.70;96.72
64198;SHT31;50512;53.666;9.700;2023-11-21T12:02:44;6.70;97.18
64198;SHT31;50512;53.666;9.700;2023-11-21T12:05:12;6.77;96.28
64198;SHT31;50512;53.666;9.700;2023-11-21T12:07:42;6.70;95.66
64198;SHT31;50512;53.666;9.700;2023-11-21T12:10:11;6.70;96.01
64198;SHT31;50512;53.666;9.700;2023-11-21T12:12:42;6.66;96.50
64198;SHT31;50512;53.666;9.700;2023-11-21T12:15:09;6.67;96.11
64198;SHT31;50512;53.666;9.700;2023-11-21T12:17:35;6.66;96.82
64198;SHT31;50512;53.666;9.700;2023-11-21T12:20:05;6.60;97.08
64198;SHT31;50512;53.666;9.700;2023-11-21T12:22:41;6.48;96.07
64198;SHT31;50512;53.666;9.700;2023-11-21T12:25:08;6.44;97.57
64198;SHT31;50512;53.666;9.700;2023-11-21T12:27:34;6.44;97.25
64198;SHT31;50512;53.666;9.700;2023-11-21T12:30:01;6.40;98.33
64198;SHT31;50512;53.666;9.700;2023-11-21T12:32:28;6.40;98.25
64198;SHT31;50512;53.666;9.700;2023-11-21T12:34:54;6.40;98.20
64198;SHT31;50512;53.666;9.700;2023-11-21T12:37:22;6.40;98.88
64198;SHT31;50512;53.666;9.700;2023-11-21T12:39:49;6.44;98.77
64198;SHT31;50512;53.666;9.700;2023-11-21T12:42:16;6.44;98.81
64198;SHT31;50512;53.666;9.700;2023-11-21T12:44:42;6.47;99.00
64198;SHT31;50512;53.666;9.700;2023-11-21T12:47:16;6.36;98.57
64198;SHT31;50512;53.666;9.700;2023-11-21T12:49:43;6.36;98.54
64198;SHT31;50512;53.666;9.700;2023-11-21T12:52:10;6.26;99.04
64198;SHT31;50512;53.666;9.700;2023-11-21T12:54:38;6.33;99.44
64198;SHT31;50512;53.666;9.700;2023-11-21T12:57:05;6.26;99.93
64198;SHT31;50512;53.666;9.700;2023-11-21T12:59:33;6.29;99.99
64198;SHT31;50512;53.666;9.700;2023-11-21T13:02:00;6.30;99.38
64198;SHT31;50512;53.666;9.700;2023-11-21T13:04:31;6.34;99.99
64198;SHT31;50512;53.666;9.700;2023-11-21T13:07:03;6.28;99.40
64198;SHT31;50512;53.666;9.700;2023-11-21T13:09:31;6.23;99.98
64198;SHT31;50512;53.666;9.700;2023-11-21T13:12:01;6.28;99.99
64198;SHT31;50512;53.666;9.700;2023-11-21T13:14:29;6.33;99.99
64198;SHT31;50512;53.666;9.700;2023-11-21T13:16:57;6.25;99.50
64198;SHT31;50512;53.666;9.700;2023-11-21T13:19:23;6.15;99.99
64198;SHT31;50512;53.666;9.700;2023-11-21T13:21:50;6.16;99.99
64198;SHT31;50512;53.666;9.700;2023-11-21T13:24:16;6.15;99.99
64198;SHT31;50512;53.666;9.700;2023-11-21T13:26:43;6.20;99.99
64198;SHT31;50512;53.666;9.700;2023-11-21T13:29:12;6.23;99.99
64198;SHT31;50512;53.666;9.700;2023-11-21T13:31:39;6.26;99.84
64198;SHT31;50512;53.666;9.700;2023-11-21T13:34:05;6.19;99.99
64198;SHT31;50512;53.666;9.700;2023-11-21T13:36:33;6.06;99.68
64198;SHT31;50512;53.666;9.700;2023-11-21T13:39:00;6.05;99.58
64198;SHT31;50512;53.666;9.700;2023-11-21T13:41:32;6.08;99.99
64198;SHT31;50512;53.666;9.700;2023-11-21T13:43:59;6.03;99.99
64198;SHT31;50512;53.666;9.700;2023-11-21T13:46:35;6.09;99.99
64198;SHT31;50512;53.666;9.700;2023-11-21T13:49:02;6.01;99.99
64198;SHT31;50512;53.666;9.700;2023-11-21T13:51:31;6.02;99.99
64198;SHT31;50512;53.666;9.700;2023-11-21T13:54:04;5.94;99.99
64198;SHT31;50512;53.666;9.700;2023-11-21T13:56:34;5.95;99.99
64198;SHT31;50512;53.666;9.700;2023-11-21T13:59:01;5.98;99.99
64198;SHT31;50512;53.666;9.700;2023-11-21T14:01:36;6.03;99.99
64198;SHT31;50512;53.666;9.700;2023-11-21T14:04:19;6.06;99.99
64198;SHT31;50512;53.666;9.700;2023-11-21T14:07:00;6.08;99.99
64198;SHT31;50512;53.666;9.700;2023-11-21T14:09:45;6.11;99.99
64198;SHT31;50512;53.666;9.700;2023-11-21T14:12:14;6.09;99.99
64198;SHT31;50512;53.666;9.700;2023-11-21T14:14:41;6.15;99.99
64198;SHT31;50512;53.666;9.700;2023-11-21T14:17:10;6.11;99.99
64198;SHT31;50512;53.666;9.700;2023-11-21T14:19:37;5.97;99.98
64198;SHT31;50512;53.666;9.700;2023-11-21T14:22:06;5.97;99.99
64198;SHT31;50512;53.666;9.700;2023-11-21T14:24:34;5.88;99.99
64198;SHT31;50512;53.666;9.700;2023-11-21T14:27:02;5.82;99.99
64198;SHT31;50512;53.666;9.700;2023-11-21T14:29:29;5.84;99.99
64198;SHT31;50512;53.666;9.700;2023-11-21T14:31:56;5.77;99.80
64198;SHT31;50512;53.666;9.700;2023-11-21T14:34:24;5.78;99.99
64198;SHT31;50512;53.666;9.700;2023-11-21T14:36:51;5.74;99.99
64198;SHT31;50512;53.666;9.700;2023-11-21T14:39:18;5.71;99.99
64198;SHT31;50512;53.666;9.700;2023-11-21T14:41:48;5.73;99.99
64198;SHT31;50512;53.666;9.700;2023-11-21T14:44:15;5.71;99.99
64198;SHT31;50512;53.666;9.700;2023-11-21T14:46:42;5.70;99.99
64198;SHT31;50512;53.666;9.700;2023-11-21T14:49:11;5.71;99.99
64198;SHT31;50512;53.666;9.700;2023-11-21T14:51:47;5.73;99.99
64198;SHT31;50512;53.666;9.700;2023-11-21T14:54:26;5.63;99.85
64198;SHT31;50512;53.666;9.700;2023-11-21T14:57:05;5.60;99.37
64198;SHT31;50512;53.666;9.700;2023-11-21T14:59:36;5.60;99.99
64198;SHT31;50512;53.666;9.700;2023-11-21T15:02:01;5.58;99.99
64198;SHT31;50512;53.666;9.700;2023-11-21T15:04:40;5.63;99.99
64198;SHT31;50512;53.666;9.700;2023-11-21T15:07:09;5.63;99.73
64198;SHT31;50512;53.666;9.700;2023-11-21T15:09:36;5.63;99.99
64198;SHT31;50512;53.666;9.700;2023-11-21T15:12:07;5.60;99.95
64198;SHT31;50512;53.666;9.700;2023-11-21T15:14:46;5.57;99.75
64198;SHT31;50512;53.666;9.700;2023-11-21T15:17:15;5.60;99.48
64198;SHT31;50512;53.666;9.700;2023-11-21T15:19:48;5.60;99.64
64198;SHT31;50512;53.666;9.700;2023-11-21T15:22:16;5.65;99.73
64198;SHT31;50512;53.666;9.700;2023-11-21T15:24:43;5.61;99.10
64198;SHT31;50512;53.666;9.700;2023-11-21T15:27:11;5.63;99.54
64198;SHT31;50512;53.666;9.700;2023-11-21T15:29:38;5.63;99.99
64198;SHT31;50512;53.666;9.700;2023-11-21T15:32:05;5.64;99.92
64198;SHT31;50512;53.666;9.700;2023-11-21T15:34:32;5.65;99.87
64198;SHT31;50512;53.666;9.700;2023-11-21T15:36:59;5.67;99.78
64198;SHT31;50512;53.666;9.700;2023-11-21T15:39:26;5.63;99.71
64198;SHT31;50512;53.666;9.700;2023-11-21T15:41:55;5.63;99.83
64198;SHT31;50512;53.666;9.700;2023-11-21T15:44:22;5.64;99.70
64198;SHT31;50512;53.666;9.700;2023-11-21T15:46:50;5.67;99.82
64198;SHT31;50512;53.666;9.700;2023-11-21T15:49:17;5.67;99.86
64198;SHT31;50512;53.666;9.700;2023-11-21T15:51:47;5.71;99.98